Time,TemperatureF,DewpointF,PressureIn,WindDirection,WindDirectionDegrees,WindSpeedMPH,WindSpeedGustMPH,Humidity,HourlyPrecipIn,Conditions,Clouds,dailyrainin,SoftwareType,DateUTC
2013-03-08 00:00:00,36.5,35.5,30.13,ENE,63,2.0,2.0,96,0.00,,---,0.21,VWS V14.01,2013-03-08 08:00:00,
2013-03-08 00:05:00,36.4,35.4,30.13,ENE,63,2.0,3.0,96,0.00,,---,0.00,VWS V14.01,2013-03-08 08:05:00,
2013-03-08 00:10:00,36.4,35.6,30.13,ENE,63,0.0,0.0,97,0.00,,---,0.00,VWS V14.01,2013-03-08 08:10:00,
2013-03-08 00:15:00,36.5,35.7,30.13,ENE,63,0.0,0.0,97,0.00,,---,0.00,VWS V14.01,2013-03-08 08:15:00,
2013-03-08 00:20:00,36.4,35.6,30.13,ENE,63,1.0,2.0,97,0.00,,---,0.00,VWS V14.01,2013-03-08 08:20:00,
2013-03-08 00:25:00,36.5,35.7,30.13,ENE,63,0.0,0.0,97,0.00,,---,0.00,VWS V14.01,2013-03-08 08:25:00,
2013-03-08 00:30:00,36.5,35.7,30.13,ENE,63,0.0,0.0,97,0.00,,---,0.00,VWS V14.01,2013-03-08 08:30:00,
2013-03-08 00:35:00,36.5,35.7,30.13,ENE,63,0.0,0.0,97,0.00,,---,0.00,VWS V14.01,2013-03-08 08:35:00,
2013-03-08 00:40:00,36.5,35.7,30.13,ENE,63,0.0,0.0,97,0.00,,---,0.00,VWS V14.01,2013-03-08 08:40:00,
2013-03-08 00:45:00,36.3,35.5,30.13,ENE,63,0.0,0.0,97,0.00,,---,0.00,VWS V14.01,2013-03-08 08:45:00,
2013-03-08 00:50:00,36.1,35.3,30.13,ENE,63,0.0,0.0,97,0.00,,---,0.00,VWS V14.01,2013-03-08 08:50:00,
2013-03-08 00:55:00,36.0,35.2,30.13,ENE,63,0.0,0.0,97,0.00,,---,0.00,VWS V14.01,2013-03-08 08:55:00,
2013-03-08 01:00:00,35.8,34.8,30.13,ENE,63,0.0,1.0,96,0.00,,---,0.00,VWS V14.01,2013-03-08 09:00:00,
2013-03-08 01:05:00,35.7,34.7,30.13,ENE,63,0.0,0.0,96,0.00,,---,0.00,VWS V14.01,2013-03-08 09:05:00,
2013-03-08 01:10:00,35.5,34.5,30.13,ENE,63,0.0,0.0,96,0.00,,---,0.00,VWS V14.01,2013-03-08 09:10:00,
2013-03-08 01:15:00,35.3,34.5,30.13,ENE,63,0.0,0.0,97,0.00,,---,0.00,VWS V14.01,2013-03-08 09:15:00,
2013-03-08 01:20:00,35.2,34.2,30.13,ENE,63,0.0,0.0,96,0.00,,---,0.00,VWS V14.01,2013-03-08 09:20:00,
2013-03-08 01:25:00,35.1,34.3,30.13,ENE,63,0.0,0.0,97,0.00,,---,0.00,VWS V14.01,2013-03-08 09:25:00,
2013-03-08 01:30:00,35.0,34.2,30.12,ENE,63,0.0,1.0,97,0.00,,---,0.00,VWS V14.01,2013-03-08 09:30:00,
2013-03-08 01:35:00,34.9,34.1,30.12,ENE,63,1.0,2.0,97,0.00,,---,0.00,VWS V14.01,2013-03-08 09:35:00,
2013-03-08 01:40:00,34.8,34.0,30.13,ENE,63,0.0,0.0,97,0.00,,---,0.00,VWS V14.01,2013-03-08 09:40:00,
2013-03-08 01:45:00,34.7,33.9,30.13,ENE,63,0.0,0.0,97,0.00,,---,0.00,VWS V14.01,2013-03-08 09:45:00,
2013-03-08 01:50:00,34.6,33.8,30.13,ENE,63,0.0,0.0,97,0.00,,---,0.00,VWS V14.01,2013-03-08 09:50:00,
2013-03-08 01:55:00,34.6,33.8,30.13,ENE,63,0.0,0.0,97,0.00,,---,0.00,VWS V14.01,2013-03-08 09:55:00,
2013-03-08 02:00:00,34.5,33.7,30.13,ENE,63,0.0,0.0,97,0.00,,---,0.00,VWS V14.01,2013-03-08 10:00:00,
2013-03-08 02:05:00,34.5,33.7,30.12,ENE,63,0.0,0.0,97,0.00,,---,0.00,VWS V14.01,2013-03-08 10:05:00,
2013-03-08 02:10:00,34.4,33.6,30.13,ENE,63,0.0,0.0,97,0.00,,---,0.00,VWS V14.01,2013-03-08 10:10:00,
2013-03-08 02:15:00,34.3,33.5,30.13,ENE,63,0.0,0.0,97,0.00,,---,0.00,VWS V14.01,2013-03-08 10:15:00,
2013-03-08 02:20:00,34.2,33.4,30.12,ENE,63,0.0,0.0,97,0.00,,---,0.00,VWS V14.01,2013-03-08 10:20:00,
2013-03-08 02:25:00,34.1,33.3,30.13,ENE,63,0.0,0.0,97,0.00,,---,0.00,VWS V14.01,2013-03-08 10:25:00,
2013-03-08 02:30:00,33.9,33.1,30.13,ENE,63,0.0,0.0,97,0.00,,---,0.00,VWS V14.01,2013-03-08 10:30:00,
2013-03-08 02:35:00,33.9,33.1,30.13,ENE,63,0.0,0.0,97,0.00,,---,0.00,VWS V14.01,2013-03-08 10:35:00,
2013-03-08 02:40:00,33.9,33.1,30.13,ENE,63,0.0,0.0,97,0.00,,---,0.00,VWS V14.01,2013-03-08 10:40:00,
2013-03-08 02:45:00,34.1,33.3,30.13,ENE,63,0.0,0.0,97,0.01,,---,0.01,VWS V14.01,2013-03-08 10:45:00,
2013-03-08 02:50:00,34.3,33.8,30.13,ENE,63,0.0,0.0,98,0.01,,---,0.01,VWS V14.01,2013-03-08 10:50:00,
2013-03-08 02:55:00,34.6,34.1,30.13,ENE,63,1.0,2.0,98,0.01,,---,0.01,VWS V14.01,2013-03-08 10:55:00,
2013-03-08 03:00:00,34.8,34.3,30.13,ENE,63,0.0,0.0,98,0.01,,---,0.01,VWS V14.01,2013-03-08 11:00:00,
2013-03-08 03:05:00,35.0,34.5,30.13,ENE,63,3.0,3.0,98,0.01,,---,0.01,VWS V14.01,2013-03-08 11:05:00,
2013-03-08 03:10:00,35.2,34.7,30.13,ENE,63,0.0,1.0,98,0.01,,---,0.01,VWS V14.01,2013-03-08 11:10:00,
2013-03-08 03:15:00,35.3,34.8,30.13,ENE,63,1.0,1.0,98,0.01,,---,0.01,VWS V14.01,2013-03-08 11:15:00,
2013-03-08 03:20:00,35.3,34.8,30.13,ENE,63,0.0,0.0,98,0.01,,---,0.01,VWS V14.01,2013-03-08 11:20:00,
2013-03-08 03:25:00,35.4,34.9,30.13,ENE,63,2.0,2.0,98,0.01,,---,0.01,VWS V14.01,2013-03-08 11:25:00,
2013-03-08 03:30:00,35.4,34.9,30.13,ENE,63,0.0,0.0,98,0.01,,---,0.01,VWS V14.01,2013-03-08 11:30:00,
2013-03-08 03:35:00,35.4,34.9,30.12,ENE,63,0.0,0.0,98,0.01,,---,0.01,VWS V14.01,2013-03-08 11:35:00,
2013-03-08 03:40:00,35.4,34.9,30.12,ENE,63,1.0,2.0,98,0.01,,---,0.01,VWS V14.01,2013-03-08 11:40:00,
2013-03-08 03:45:00,35.4,34.9,30.13,ENE,63,0.0,1.0,98,0.01,,---,0.01,VWS V14.01,2013-03-08 11:45:00,
2013-03-08 03:50:00,35.3,34.5,30.12,ENE,63,0.0,0.0,97,0.00,,---,0.01,VWS V14.01,2013-03-08 11:50:00,
2013-03-08 03:55:00,35.3,34.5,30.12,ENE,63,0.0,0.0,97,0.00,,---,0.01,VWS V14.01,2013-03-08 11:55:00,
2013-03-08 04:00:00,35.3,34.5,30.12,ENE,63,0.0,2.0,97,0.00,,---,0.01,VWS V14.01,2013-03-08 12:00:00,
2013-03-08 04:05:00,35.3,34.5,30.12,ENE,63,1.0,1.0,97,0.00,,---,0.01,VWS V14.01,2013-03-08 12:05:00,
2013-03-08 04:10:00,35.3,34.8,30.12,ENE,63,3.0,3.0,98,0.00,,---,0.01,VWS V14.01,2013-03-08 12:10:00,
2013-03-08 04:15:00,35.3,34.8,30.13,ENE,63,1.0,1.0,98,0.00,,---,0.01,VWS V14.01,2013-03-08 12:15:00,
2013-03-08 04:20:00,35.3,34.8,30.13,ENE,63,1.0,2.0,98,0.00,,---,0.01,VWS V14.01,2013-03-08 12:20:00,
2013-03-08 04:25:00,35.3,34.8,30.13,ENE,63,2.0,2.0,98,0.00,,---,0.01,VWS V14.01,2013-03-08 12:25:00,
2013-03-08 04:30:00,35.3,34.8,30.12,ENE,63,0.0,0.0,98,0.00,,---,0.01,VWS V14.01,2013-03-08 12:30:00,
2013-03-08 04:35:00,35.3,34.8,30.13,ENE,63,0.0,0.0,98,0.00,,---,0.01,VWS V14.01,2013-03-08 12:35:00,
2013-03-08 04:40:00,35.2,34.7,30.13,ENE,63,0.0,0.0,98,0.00,,---,0.01,VWS V14.01,2013-03-08 12:40:00,
2013-03-08 04:45:00,35.1,34.3,30.13,ENE,63,0.0,0.0,97,0.00,,---,0.01,VWS V14.01,2013-03-08 12:45:00,
2013-03-08 04:50:00,35.0,34.5,30.13,ENE,63,0.0,0.0,98,0.00,,---,0.01,VWS V14.01,2013-03-08 12:50:00,
2013-03-08 04:55:00,34.8,34.3,30.13,ENE,63,0.0,0.0,98,0.00,,---,0.01,VWS V14.01,2013-03-08 12:55:00,
2013-03-08 05:00:00,34.7,33.9,30.13,ENE,63,0.0,0.0,97,0.00,,---,0.01,VWS V14.01,2013-03-08 13:00:00,
2013-03-08 05:05:00,34.6,33.8,30.13,ENE,63,0.0,0.0,97,0.00,,---,0.01,VWS V14.01,2013-03-08 13:05:00,
2013-03-08 05:10:00,34.5,33.7,30.13,ENE,63,0.0,0.0,97,0.00,,---,0.01,VWS V14.01,2013-03-08 13:10:00,
2013-03-08 05:15:00,34.4,33.6,30.13,ENE,63,0.0,0.0,97,0.00,,---,0.01,VWS V14.01,2013-03-08 13:15:00,
2013-03-08 05:20:00,34.4,33.9,30.13,ENE,63,0.0,0.0,98,0.00,,---,0.01,VWS V14.01,2013-03-08 13:20:00,
2013-03-08 05:25:00,34.3,33.8,30.13,ENE,63,0.0,0.0,98,0.00,,---,0.01,VWS V14.01,2013-03-08 13:25:00,
2013-03-08 05:30:00,34.3,33.8,30.13,ENE,63,0.0,0.0,98,0.00,,---,0.01,VWS V14.01,2013-03-08 13:30:00,
2013-03-08 05:35:00,34.2,33.7,30.14,ENE,63,0.0,0.0,98,0.00,,---,0.01,VWS V14.01,2013-03-08 13:35:00,
2013-03-08 05:40:00,34.2,33.7,30.14,ENE,63,0.0,0.0,98,0.00,,---,0.01,VWS V14.01,2013-03-08 13:40:00,
2013-03-08 05:45:00,34.1,33.3,30.14,ENE,63,0.0,0.0,97,0.00,,---,0.01,VWS V14.01,2013-03-08 13:45:00,
2013-03-08 05:50:00,34.1,33.3,30.14,ENE,63,2.0,2.0,97,0.00,,---,0.01,VWS V14.01,2013-03-08 13:50:00,
2013-03-08 05:55:00,34.0,33.2,30.14,ENE,63,0.0,0.0,97,0.00,,---,0.01,VWS V14.01,2013-03-08 13:55:00,
2013-03-08 06:00:00,34.0,33.5,30.14,ENE,63,0.0,0.0,98,0.00,,---,0.01,VWS V14.01,2013-03-08 14:00:00,
2013-03-08 06:05:00,33.9,33.4,30.14,ENE,63,0.0,0.0,98,0.00,,---,0.01,VWS V14.01,2013-03-08 14:05:00,
2013-03-08 06:10:00,33.9,33.4,30.14,ENE,63,0.0,0.0,98,0.00,,---,0.01,VWS V14.01,2013-03-08 14:10:00,
2013-03-08 06:16:00,33.9,33.4,30.14,ENE,63,0.0,0.0,98,0.00,,---,0.01,VWS V14.01,2013-03-08 14:16:00,
2013-03-08 06:20:00,33.9,33.4,30.14,ENE,63,0.0,0.0,98,0.00,,---,0.01,VWS V14.01,2013-03-08 14:20:00,
2013-03-08 06:25:00,33.9,33.4,30.14,ENE,63,0.0,0.0,98,0.00,,---,0.01,VWS V14.01,2013-03-08 14:25:00,
2013-03-08 06:31:00,33.9,33.4,30.14,ENE,63,0.0,0.0,98,0.00,,---,0.01,VWS V14.01,2013-03-08 14:31:00,
2013-03-08 06:36:00,34.0,33.5,30.14,ENE,63,0.0,0.0,98,0.00,,---,0.01,VWS V14.01,2013-03-08 14:36:00,
2013-03-08 06:41:00,34.0,33.5,30.14,ENE,63,0.0,0.0,98,0.00,,---,0.01,VWS V14.01,2013-03-08 14:41:00,
2013-03-08 06:46:00,34.0,33.5,30.14,ENE,63,0.0,0.0,98,0.00,,---,0.01,VWS V14.01,2013-03-08 14:46:00,
2013-03-08 06:51:00,33.9,33.4,30.14,ENE,63,0.0,0.0,98,0.00,,---,0.01,VWS V14.01,2013-03-08 14:51:00,
2013-03-08 06:56:00,34.0,33.5,30.14,ENE,63,0.0,0.0,98,0.00,,---,0.01,VWS V14.01,2013-03-08 14:56:00,
2013-03-08 07:01:00,33.9,33.4,30.14,ENE,63,0.0,0.0,98,0.00,,---,0.01,VWS V14.01,2013-03-08 15:01:00,
2013-03-08 07:06:00,33.9,33.4,30.14,ENE,63,0.0,0.0,98,0.00,,---,0.01,VWS V14.01,2013-03-08 15:06:00,
2013-03-08 07:11:00,33.9,33.4,30.14,ENE,63,0.0,0.0,98,0.00,,---,0.01,VWS V14.01,2013-03-08 15:11:00,
2013-03-08 07:16:00,34.0,33.5,30.14,ENE,63,0.0,1.0,98,0.00,,---,0.01,VWS V14.01,2013-03-08 15:16:00,
2013-03-08 07:21:00,34.0,33.5,30.14,ENE,63,0.0,0.0,98,0.00,,---,0.01,VWS V14.01,2013-03-08 15:21:00,
2013-03-08 07:26:00,34.1,33.6,30.14,ENE,63,0.0,2.0,98,0.00,,---,0.01,VWS V14.01,2013-03-08 15:26:00,
2013-03-08 07:32:00,34.1,33.6,30.14,ENE,63,0.0,0.0,98,0.00,,---,0.01,VWS V14.01,2013-03-08 15:32:00,
2013-03-08 07:36:00,34.1,33.6,30.15,ENE,63,0.0,0.0,98,0.00,,---,0.01,VWS V14.01,2013-03-08 15:36:00,
2013-03-08 07:41:00,34.1,33.6,30.15,ENE,63,0.0,0.0,98,0.00,,---,0.01,VWS V14.01,2013-03-08 15:41:00,
2013-03-08 07:46:00,34.2,33.7,30.15,ENE,63,0.0,0.0,98,0.00,,---,0.01,VWS V14.01,2013-03-08 15:46:00,
2013-03-08 07:51:00,34.3,33.8,30.15,ENE,63,0.0,0.0,98,0.00,,---,0.01,VWS V14.01,2013-03-08 15:51:00,
2013-03-08 07:56:00,34.5,34.0,30.15,ENE,63,0.0,0.0,98,0.00,,---,0.01,VWS V14.01,2013-03-08 15:56:00,
2013-03-08 08:01:00,34.7,34.2,30.15,ENE,63,0.0,0.0,98,0.00,,---,0.01,VWS V14.01,2013-03-08 16:01:00,
2013-03-08 08:06:00,34.9,34.4,30.15,ENE,63,0.0,2.0,98,0.00,,---,0.01,VWS V14.01,2013-03-08 16:06:00,
2013-03-08 08:11:00,35.1,34.6,30.16,ENE,63,1.0,2.0,98,0.00,,---,0.01,VWS V14.01,2013-03-08 16:11:00,
2013-03-08 08:16:00,35.3,34.8,30.16,ENE,63,0.0,0.0,98,0.00,,---,0.01,VWS V14.01,2013-03-08 16:16:00,
2013-03-08 08:21:00,35.5,35.0,30.16,North,355,1.0,2.0,98,0.00,,---,0.01,VWS V14.01,2013-03-08 16:21:00,
2013-03-08 08:26:00,35.7,35.2,30.16,North,355,0.0,2.0,98,0.00,,---,0.01,VWS V14.01,2013-03-08 16:26:00,
2013-03-08 08:31:00,35.8,35.3,30.16,North,355,0.0,0.0,98,0.00,,---,0.01,VWS V14.01,2013-03-08 16:31:00,
2013-03-08 08:37:00,35.9,35.4,30.16,North,355,0.0,1.0,98,0.00,,---,0.01,VWS V14.01,2013-03-08 16:37:00,
2013-03-08 08:41:00,36.0,35.5,30.17,North,355,0.0,2.0,98,0.00,,---,0.01,VWS V14.01,2013-03-08 16:41:00,
2013-03-08 08:46:00,36.2,35.7,30.17,North,355,0.0,1.0,98,0.00,,---,0.01,VWS V14.01,2013-03-08 16:46:00,
2013-03-08 08:51:00,36.2,35.7,30.17,North,355,0.0,0.0,98,0.00,,---,0.01,VWS V14.01,2013-03-08 16:51:00,
2013-03-08 08:56:00,36.4,35.9,30.17,NW,315,1.0,1.0,98,0.00,,---,0.01,VWS V14.01,2013-03-08 16:56:00,
2013-03-08 09:01:00,36.3,35.8,30.17,West,272,1.0,1.0,98,0.00,,---,0.01,VWS V14.01,2013-03-08 17:01:00,
2013-03-08 09:06:00,36.4,35.9,30.17,West,272,0.0,1.0,98,0.00,,---,0.01,VWS V14.01,2013-03-08 17:06:00,
2013-03-08 09:11:00,36.5,36.0,30.17,West,272,1.0,2.0,98,0.00,,---,0.01,VWS V14.01,2013-03-08 17:11:00,
2013-03-08 09:16:00,36.6,36.1,30.17,West,272,2.0,2.0,98,0.00,,---,0.01,VWS V14.01,2013-03-08 17:16:00,
2013-03-08 09:21:00,36.6,36.1,30.17,West,272,2.0,3.0,98,0.00,,---,0.01,VWS V14.01,2013-03-08 17:21:00,
2013-03-08 09:26:00,36.8,36.3,30.17,SW,236,1.0,3.0,98,0.00,,---,0.01,VWS V14.01,2013-03-08 17:26:00,
2013-03-08 09:31:00,36.8,36.3,30.17,SW,236,0.0,1.0,98,0.00,,---,0.01,VWS V14.01,2013-03-08 17:31:00,
2013-03-08 09:36:00,37.0,36.5,30.17,SSW,212,2.0,2.0,98,0.00,,---,0.01,VWS V14.01,2013-03-08 17:36:00,
2013-03-08 09:41:00,37.3,36.8,30.17,SW,226,1.0,3.0,98,0.00,,---,0.01,VWS V14.01,2013-03-08 17:41:00,
2013-03-08 09:46:00,37.7,37.2,30.17,WSW,254,1.0,3.0,98,0.00,,---,0.01,VWS V14.01,2013-03-08 17:46:00,
2013-03-08 09:51:00,37.7,37.2,30.17,WSW,255,2.0,3.0,98,0.00,,---,0.01,VWS V14.01,2013-03-08 17:51:00,
2013-03-08 09:57:00,37.7,37.2,30.18,WSW,255,1.0,3.0,98,0.00,,---,0.01,VWS V14.01,2013-03-08 17:57:00,
2013-03-08 10:02:00,37.7,37.2,30.18,WSW,255,2.0,2.0,98,0.00,,---,0.01,VWS V14.01,2013-03-08 18:02:00,
2013-03-08 10:07:00,37.5,37.0,30.18,WSW,255,2.0,2.0,98,0.00,,---,0.01,VWS V14.01,2013-03-08 18:07:00,
2013-03-08 10:12:00,37.5,37.0,30.18,WSW,255,2.0,3.0,98,0.00,,---,0.01,VWS V14.01,2013-03-08 18:12:00,
2013-03-08 10:17:00,37.5,37.0,30.18,WSW,255,0.0,0.0,98,0.00,,---,0.01,VWS V14.01,2013-03-08 18:17:00,
2013-03-08 10:22:00,37.7,37.2,30.18,WSW,255,0.0,3.0,98,0.00,,---,0.01,VWS V14.01,2013-03-08 18:22:00,
2013-03-08 10:27:00,37.9,37.4,30.17,WSW,255,0.0,1.0,98,0.00,,---,0.01,VWS V14.01,2013-03-08 18:27:00,
2013-03-08 10:32:00,38.4,37.9,30.17,WSW,255,0.0,1.0,98,0.00,,---,0.01,VWS V14.01,2013-03-08 18:32:00,
2013-03-08 10:38:00,38.7,38.2,30.17,WSW,255,1.0,2.0,98,0.00,,---,0.01,VWS V14.01,2013-03-08 18:38:00,
2013-03-08 10:42:00,39.0,38.5,30.17,WSW,255,1.0,2.0,98,0.00,,---,0.01,VWS V14.01,2013-03-08 18:42:00,
2013-03-08 10:47:00,39.1,38.6,30.17,WSW,255,3.0,4.0,98,0.00,,---,0.01,VWS V14.01,2013-03-08 18:47:00,
2013-03-08 10:52:00,39.1,38.6,30.17,WSW,255,1.0,2.0,98,0.00,,---,0.01,VWS V14.01,2013-03-08 18:52:00,
2013-03-08 10:57:00,39.1,38.6,30.17,WSW,255,2.0,2.0,98,0.00,,---,0.01,VWS V14.01,2013-03-08 18:57:00,
2013-03-08 11:02:00,39.1,38.6,30.17,WSW,255,3.0,3.0,98,0.00,,---,0.01,VWS V14.01,2013-03-08 19:02:00,
2013-03-08 11:07:00,39.3,38.8,30.17,WSW,255,3.0,3.0,98,0.00,,---,0.01,VWS V14.01,2013-03-08 19:07:00,
2013-03-08 11:12:00,39.9,39.4,30.17,WSW,255,1.0,4.0,98,0.00,,---,0.01,VWS V14.01,2013-03-08 19:12:00,
2013-03-08 11:17:00,40.1,39.6,30.17,WSW,255,2.0,4.0,98,0.00,,---,0.01,VWS V14.01,2013-03-08 19:17:00,
2013-03-08 11:22:00,40.1,39.6,30.17,WSW,255,0.0,0.0,98,0.00,,---,0.01,VWS V14.01,2013-03-08 19:22:00,
2013-03-08 11:27:00,40.6,40.1,30.17,WSW,255,2.0,2.0,98,0.00,,---,0.01,VWS V14.01,2013-03-08 19:27:00,
2013-03-08 11:32:00,41.2,40.7,30.17,WSW,255,1.0,2.0,98,0.00,,---,0.01,VWS V14.01,2013-03-08 19:32:00,
2013-03-08 11:37:00,41.9,41.4,30.17,WSW,255,0.0,0.0,98,0.00,,---,0.01,VWS V14.01,2013-03-08 19:37:00,
2013-03-08 11:42:00,42.5,42.0,30.17,WSW,255,1.0,1.0,98,0.00,,---,0.01,VWS V14.01,2013-03-08 19:42:00,
2013-03-08 11:47:00,42.9,42.4,30.17,WSW,255,0.0,0.0,98,0.00,,---,0.01,VWS V14.01,2013-03-08 19:47:00,
2013-03-08 11:52:00,43.6,42.8,30.17,WSW,255,0.0,1.0,97,0.00,,---,0.01,VWS V14.01,2013-03-08 19:52:00,
2013-03-08 11:57:00,44.7,43.6,30.16,WSW,255,3.0,4.0,96,0.00,,---,0.01,VWS V14.01,2013-03-08 19:57:00,
2013-03-08 12:02:00,44.8,43.2,30.17,WSW,255,3.0,3.0,94,0.00,,---,0.01,VWS V14.01,2013-03-08 20:02:00,
2013-03-08 12:07:00,44.9,42.7,30.16,WSW,255,1.0,3.0,92,0.00,,---,0.01,VWS V14.01,2013-03-08 20:07:00,
2013-03-08 12:12:00,45.1,42.6,30.16,WSW,255,2.0,3.0,91,0.00,,---,0.01,VWS V14.01,2013-03-08 20:12:00,
2013-03-08 12:17:00,45.5,42.7,30.16,SSW,206,0.0,1.0,90,0.00,,---,0.01,VWS V14.01,2013-03-08 20:17:00,
2013-03-08 12:22:00,46.3,43.2,30.16,SSW,207,1.0,2.0,89,0.00,,---,0.01,VWS V14.01,2013-03-08 20:22:00,
2013-03-08 12:27:00,47.3,43.9,30.16,SSE,151,0.0,2.0,88,0.00,,---,0.01,VWS V14.01,2013-03-08 20:27:00,
2013-03-08 12:32:00,47.8,43.5,30.15,SSE,157,5.0,5.0,85,0.00,,---,0.01,VWS V14.01,2013-03-08 20:32:00,
2013-03-08 12:37:00,47.9,43.6,30.15,SW,227,3.0,3.0,85,0.00,,---,0.01,VWS V14.01,2013-03-08 20:37:00,
2013-03-08 12:42:00,47.8,43.5,30.15,West,269,2.0,4.0,85,0.00,,---,0.01,VWS V14.01,2013-03-08 20:42:00,
2013-03-08 12:47:00,48.2,43.3,30.15,West,259,2.0,5.0,83,0.00,,---,0.01,VWS V14.01,2013-03-08 20:47:00,
2013-03-08 12:52:00,48.2,42.7,30.15,West,271,1.0,3.0,81,0.00,,---,0.01,VWS V14.01,2013-03-08 20:52:00,
2013-03-08 12:57:00,48.2,42.7,30.15,WNW,283,4.0,5.0,81,0.00,,---,0.01,VWS V14.01,2013-03-08 20:57:00,
2013-03-08 13:02:00,48.1,41.9,30.15,West,261,4.0,5.0,79,0.00,,---,0.01,VWS V14.01,2013-03-08 21:02:00,
2013-03-08 13:07:00,48.3,42.8,30.15,West,263,1.0,5.0,81,0.00,,---,0.01,VWS V14.01,2013-03-08 21:07:00,
2013-03-08 13:12:00,48.8,42.6,30.15,WSW,254,4.0,5.0,79,0.00,,---,0.01,VWS V14.01,2013-03-08 21:12:00,
2013-03-08 13:17:00,49.0,42.8,30.15,WNW,286,3.0,5.0,79,0.00,,---,0.01,VWS V14.01,2013-03-08 21:17:00,
2013-03-08 13:22:00,49.4,42.8,30.15,WSW,251,5.0,5.0,78,0.00,,---,0.01,VWS V14.01,2013-03-08 21:22:00,
2013-03-08 13:27:00,49.7,43.1,30.15,WSW,254,5.0,5.0,78,0.00,,---,0.01,VWS V14.01,2013-03-08 21:27:00,
2013-03-08 13:32:00,50.0,43.4,30.15,NW,319,5.0,5.0,78,0.00,,---,0.01,VWS V14.01,2013-03-08 21:32:00,
2013-03-08 13:38:00,50.4,43.5,30.15,WNW,294,2.0,5.0,77,0.00,,---,0.01,VWS V14.01,2013-03-08 21:38:00,
2013-03-08 13:42:00,50.5,42.9,30.15,West,273,5.0,5.0,75,0.00,,---,0.01,VWS V14.01,2013-03-08 21:42:00,
2013-03-08 13:47:00,50.6,43.3,30.15,West,279,6.0,7.0,76,0.00,,---,0.01,VWS V14.01,2013-03-08 21:47:00,
2013-03-08 13:52:00,50.9,42.9,30.14,SSW,200,1.0,4.0,74,0.00,,---,0.01,VWS V14.01,2013-03-08 21:52:00,
2013-03-08 13:57:00,51.3,43.3,30.14,West,281,0.0,2.0,74,0.00,,---,0.01,VWS V14.01,2013-03-08 21:57:00,
2013-03-08 14:02:00,52.1,43.7,30.14,West,281,1.0,1.0,73,0.00,,---,0.01,VWS V14.01,2013-03-08 22:02:00,
2013-03-08 14:07:00,52.6,43.1,30.14,NW,323,6.0,8.0,70,0.00,,---,0.01,VWS V14.01,2013-03-08 22:07:00,
2013-03-08 14:13:00,53.2,42.5,30.15,WNW,289,6.0,6.0,67,0.00,,---,0.01,VWS V14.01,2013-03-08 22:13:00,
2013-03-08 14:17:00,53.3,42.2,30.14,NW,314,5.0,5.0,66,0.00,,---,0.01,VWS V14.01,2013-03-08 22:17:00,
2013-03-08 14:22:00,53.7,42.6,30.14,North,355,6.0,6.0,66,0.00,,---,0.01,VWS V14.01,2013-03-08 22:22:00,
2013-03-08 14:27:00,54.4,43.7,30.15,NNW,335,5.0,7.0,67,0.00,,---,0.01,VWS V14.01,2013-03-08 22:27:00,
2013-03-08 14:32:00,54.5,42.2,30.14,WSW,242,2.0,6.0,63,0.00,,---,0.01,VWS V14.01,2013-03-08 22:32:00,
2013-03-08 14:38:00,54.3,42.8,30.14,North,350,6.0,6.0,65,0.00,,---,0.01,VWS V14.01,2013-03-08 22:38:00,
2013-03-08 14:43:00,54.6,43.1,30.15,NNW,346,5.0,6.0,65,0.00,,---,0.01,VWS V14.01,2013-03-08 22:43:00,
2013-03-08 14:48:00,55.0,42.7,30.15,NNE,19,3.0,4.0,63,0.00,,---,0.01,VWS V14.01,2013-03-08 22:48:00,
2013-03-08 14:53:00,55.4,43.0,30.14,NNW,329,2.0,5.0,63,0.00,,---,0.01,VWS V14.01,2013-03-08 22:53:00,
2013-03-08 14:58:00,55.5,41.4,30.14,NNW,342,2.0,3.0,59,0.00,,---,0.01,VWS V14.01,2013-03-08 22:58:00,
2013-03-08 15:04:00,55.7,42.0,30.15,NNW,346,8.0,9.0,60,0.00,,---,0.01,VWS V14.01,2013-03-08 23:04:00,
2013-03-08 15:09:00,55.5,41.9,30.15,North,355,3.0,7.0,60,0.00,,---,0.01,VWS V14.01,2013-03-08 23:09:00,
2013-03-08 15:14:00,55.7,42.0,30.15,North,355,6.0,6.0,60,0.00,,---,0.01,VWS V14.01,2013-03-08 23:14:00,
2013-03-08 15:19:00,55.9,41.8,30.15,NNW,340,4.0,6.0,59,0.00,,---,0.01,VWS V14.01,2013-03-08 23:19:00,
2013-03-08 15:24:00,55.8,41.7,30.15,NNW,342,7.0,7.0,59,0.00,,---,0.01,VWS V14.01,2013-03-08 23:24:00,
2013-03-08 15:29:00,55.6,42.0,30.15,NNW,331,6.0,6.0,60,0.00,,---,0.01,VWS V14.01,2013-03-08 23:29:00,
2013-03-08 15:34:00,55.4,41.8,30.15,WNW,293,5.0,7.0,60,0.00,,---,0.01,VWS V14.01,2013-03-08 23:34:00,
2013-03-08 15:39:00,55.1,41.9,30.15,NW,311,3.0,4.0,61,0.00,,---,0.01,VWS V14.01,2013-03-08 23:39:00,
2013-03-08 15:44:00,55.1,41.9,30.15,North,360,9.0,10.0,61,0.00,,---,0.01,VWS V14.01,2013-03-08 23:44:00,
2013-03-08 15:50:00,55.0,41.4,30.15,WNW,298,4.0,7.0,60,0.00,,---,0.01,VWS V14.01,2013-03-08 23:50:00,
2013-03-08 15:54:00,54.5,41.8,30.15,NNW,339,6.0,10.0,62,0.00,,---,0.01,VWS V14.01,2013-03-08 23:54:00,
2013-03-08 15:59:00,54.6,41.9,30.15,NW,315,5.0,6.0,62,0.00,,---,0.01,VWS V14.01,2013-03-08 23:59:00,
2013-03-08 16:05:00,54.8,41.6,30.15,NW,311,7.0,9.0,61,0.00,,---,0.01,VWS V14.01,2013-03-09 00:05:00,
2013-03-08 16:10:00,54.9,41.7,30.16,NNW,335,5.0,7.0,61,0.00,,---,0.01,VWS V14.01,2013-03-09 00:10:00,
2013-03-08 16:14:00,54.8,41.2,30.16,North,355,7.0,9.0,60,0.00,,---,0.01,VWS V14.01,2013-03-09 00:14:00,
2013-03-08 16:19:00,54.8,41.6,30.16,NNW,348,5.0,8.0,61,0.00,,---,0.01,VWS V14.01,2013-03-09 00:19:00,
2013-03-08 16:24:00,54.8,41.2,30.16,NW,325,8.0,10.0,60,0.00,,---,0.01,VWS V14.01,2013-03-09 00:24:00,
2013-03-08 16:29:00,54.4,40.8,30.16,NNE,17,8.0,10.0,60,0.00,,---,0.01,VWS V14.01,2013-03-09 00:29:00,
2013-03-08 16:34:00,54.0,40.9,30.16,North,5,8.0,8.0,61,0.00,,---,0.01,VWS V14.01,2013-03-09 00:34:00,
2013-03-08 16:39:00,54.3,41.2,30.16,NW,326,6.0,8.0,61,0.00,,---,0.01,VWS V14.01,2013-03-09 00:39:00,
2013-03-08 16:44:00,54.4,40.8,30.16,WNW,296,5.0,7.0,60,0.00,,---,0.01,VWS V14.01,2013-03-09 00:44:00,
2013-03-08 16:50:00,54.3,40.7,30.16,NNW,340,7.0,7.0,60,0.00,,---,0.01,VWS V14.01,2013-03-09 00:50:00,
2013-03-08 16:54:00,54.1,40.5,30.16,NW,306,6.0,7.0,60,0.00,,---,0.01,VWS V14.01,2013-03-09 00:54:00,
2013-03-08 16:59:00,53.8,40.7,30.16,NNW,347,7.0,7.0,61,0.00,,---,0.01,VWS V14.01,2013-03-09 00:59:00,
2013-03-08 17:04:00,53.2,40.5,30.16,NNW,347,4.0,6.0,62,0.00,,---,0.01,VWS V14.01,2013-03-09 01:04:00,
2013-03-08 17:10:00,52.6,40.4,30.17,NNW,327,6.0,9.0,63,0.00,,---,0.01,VWS V14.01,2013-03-09 01:10:00,
2013-03-08 17:15:00,52.1,40.7,30.17,North,355,6.0,6.0,65,0.00,,---,0.01,VWS V14.01,2013-03-09 01:15:00,
2013-03-08 17:20:00,51.6,40.2,30.17,NNW,329,4.0,6.0,65,0.00,,---,0.01,VWS V14.01,2013-03-09 01:20:00,
2013-03-08 17:25:00,51.5,40.5,30.17,NNW,333,6.0,7.0,66,0.00,,---,0.01,VWS V14.01,2013-03-09 01:25:00,
2013-03-08 17:30:00,51.3,40.3,30.18,NNW,331,3.0,5.0,66,0.00,,---,0.01,VWS V14.01,2013-03-09 01:30:00,
2013-03-08 17:35:00,51.1,40.5,30.17,North,355,6.0,6.0,67,0.00,,---,0.01,VWS V14.01,2013-03-09 01:35:00,
2013-03-08 17:40:00,50.6,40.1,30.18,NNW,336,4.0,5.0,67,0.00,,---,0.01,VWS V14.01,2013-03-09 01:40:00,
2013-03-08 17:45:00,50.4,39.9,30.18,North,11,3.0,6.0,67,0.00,,---,0.01,VWS V14.01,2013-03-09 01:45:00,
2013-03-08 17:50:00,50.1,39.6,30.18,NW,325,6.0,7.0,67,0.00,,---,0.01,VWS V14.01,2013-03-09 01:50:00,
2013-03-08 17:55:00,49.7,39.6,30.18,North,360,3.0,3.0,68,0.00,,---,0.01,VWS V14.01,2013-03-09 01:55:00,
2013-03-08 18:00:00,49.4,40.0,30.18,North,5,3.0,3.0,70,0.00,,---,0.01,VWS V14.01,2013-03-09 02:00:00,
2013-03-08 18:05:00,49.0,39.7,30.19,North,5,0.0,2.0,70,0.00,,---,0.01,VWS V14.01,2013-03-09 02:05:00,
2013-03-08 18:10:00,48.7,39.4,30.19,North,355,0.0,2.0,70,0.00,,---,0.01,VWS V14.01,2013-03-09 02:10:00,
2013-03-08 18:15:00,48.3,39.3,30.19,North,355,4.0,4.0,71,0.00,,---,0.01,VWS V14.01,2013-03-09 02:15:00,
2013-03-08 18:21:00,48.0,39.4,30.19,North,355,2.0,5.0,72,0.00,,---,0.01,VWS V14.01,2013-03-09 02:21:00,
2013-03-08 18:26:00,47.7,39.5,30.19,North,355,3.0,3.0,73,0.00,,---,0.01,VWS V14.01,2013-03-09 02:26:00,
2013-03-08 18:31:00,47.3,39.1,30.20,North,355,3.0,3.0,73,0.00,,---,0.01,VWS V14.01,2013-03-09 02:31:00,
2013-03-08 18:36:00,47.0,39.2,30.20,North,355,2.0,3.0,74,0.00,,---,0.01,VWS V14.01,2013-03-09 02:36:00,
2013-03-08 18:41:00,46.8,39.0,30.20,North,350,2.0,2.0,74,0.00,,---,0.01,VWS V14.01,2013-03-09 02:41:00,
2013-03-08 18:46:00,46.5,39.0,30.20,North,350,4.0,4.0,75,0.00,,---,0.01,VWS V14.01,2013-03-09 02:46:00,
2013-03-08 18:51:00,46.3,38.8,30.21,NNW,337,1.0,2.0,75,0.00,,---,0.01,VWS V14.01,2013-03-09 02:51:00,
2013-03-08 18:56:00,46.2,39.1,30.21,NNW,337,3.0,4.0,76,0.00,,---,0.01,VWS V14.01,2013-03-09 02:56:00,
2013-03-08 19:01:00,46.0,39.2,30.21,NNW,337,0.0,0.0,77,0.00,,---,0.01,VWS V14.01,2013-03-09 03:01:00,
2013-03-08 19:06:00,45.8,39.0,30.21,NNW,337,0.0,1.0,77,0.00,,---,0.01,VWS V14.01,2013-03-09 03:06:00,
2013-03-08 19:11:00,45.6,39.2,30.22,NNW,337,0.0,0.0,78,0.00,,---,0.01,VWS V14.01,2013-03-09 03:11:00,
2013-03-08 19:16:00,45.4,39.0,30.22,NNW,337,0.0,0.0,78,0.00,,---,0.01,VWS V14.01,2013-03-09 03:16:00,
2013-03-08 19:22:00,45.1,39.0,30.22,NNW,337,0.0,0.0,79,0.00,,---,0.01,VWS V14.01,2013-03-09 03:22:00,
2013-03-08 19:26:00,44.7,38.9,30.22,NNW,337,0.0,0.0,80,0.00,,---,0.01,VWS V14.01,2013-03-09 03:26:00,
2013-03-08 19:31:00,44.5,39.0,30.23,NNW,337,0.0,0.0,81,0.00,,---,0.01,VWS V14.01,2013-03-09 03:31:00,
2013-03-08 19:36:00,44.4,38.9,30.23,NNW,337,0.0,0.0,81,0.00,,---,0.01,VWS V14.01,2013-03-09 03:36:00,
2013-03-08 19:41:00,44.3,39.2,30.23,NNW,337,0.0,2.0,82,0.00,,---,0.01,VWS V14.01,2013-03-09 03:41:00,
2013-03-08 19:46:00,44.1,39.0,30.23,NNW,337,0.0,0.0,82,0.00,,---,0.01,VWS V14.01,2013-03-09 03:46:00,
2013-03-08 19:51:00,44.0,39.2,30.23,NNW,337,0.0,2.0,83,0.00,,---,0.01,VWS V14.01,2013-03-09 03:51:00,
2013-03-08 19:56:00,43.8,39.0,30.23,NNW,337,1.0,1.0,83,0.00,,---,0.01,VWS V14.01,2013-03-09 03:56:00,
2013-03-08 20:02:00,43.6,39.1,30.23,NNW,337,0.0,2.0,84,0.00,,---,0.01,VWS V14.01,2013-03-09 04:02:00,
2013-03-08 20:06:00,43.4,39.2,30.24,NNW,337,1.0,2.0,85,0.00,,---,0.01,VWS V14.01,2013-03-09 04:06:00,
2013-03-08 20:11:00,43.2,39.0,30.24,NNW,337,3.0,3.0,85,0.00,,---,0.01,VWS V14.01,2013-03-09 04:11:00,
2013-03-08 20:17:00,43.1,39.2,30.24,NNW,337,0.0,0.0,86,0.00,,---,0.01,VWS V14.01,2013-03-09 04:17:00,
2013-03-08 20:21:00,42.9,39.0,30.24,NNW,337,0.0,0.0,86,0.00,,---,0.01,VWS V14.01,2013-03-09 04:21:00,
2013-03-08 20:26:00,42.8,39.2,30.24,NNW,337,0.0,2.0,87,0.00,,---,0.01,VWS V14.01,2013-03-09 04:26:00,
2013-03-08 20:31:00,42.7,39.1,30.25,NNW,337,1.0,2.0,87,0.00,,---,0.01,VWS V14.01,2013-03-09 04:31:00,
2013-03-08 20:36:00,42.7,39.4,30.25,NNW,337,0.0,1.0,88,0.00,,---,0.01,VWS V14.01,2013-03-09 04:36:00,
2013-03-08 20:41:00,42.7,39.4,30.25,NNW,337,0.0,0.0,88,0.00,,---,0.01,VWS V14.01,2013-03-09 04:41:00,
2013-03-08 20:47:00,42.7,39.4,30.25,NNW,337,0.0,0.0,88,0.00,,---,0.01,VWS V14.01,2013-03-09 04:47:00,
2013-03-08 20:51:00,42.8,39.5,30.25,NNW,337,0.0,1.0,88,0.00,,---,0.01,VWS V14.01,2013-03-09 04:51:00,
2013-03-08 20:56:00,42.7,39.4,30.25,NNW,337,1.0,2.0,88,0.00,,---,0.01,VWS V14.01,2013-03-09 04:56:00,
2013-03-08 21:00:00,42.7,39.4,30.25,NNW,337,1.0,1.0,88,0.00,,---,0.01,VWS V14.01,2013-03-09 05:00:00,
2013-03-08 21:02:00,42.6,39.3,30.25,NNW,337,0.0,0.0,88,0.00,,---,0.01,VWS V14.01,2013-03-09 05:02:00,
2013-03-08 21:03:00,42.5,39.2,30.25,NNW,337,0.0,0.0,88,0.00,,---,0.01,VWS V14.01,2013-03-09 05:03:00,
2013-03-08 21:08:00,42.5,39.2,30.25,NNW,337,0.0,0.0,88,0.00,,---,0.01,VWS V14.01,2013-03-09 05:08:00,
2013-03-08 21:13:00,42.5,39.2,30.25,NNW,337,2.0,2.0,88,0.00,,---,0.01,VWS V14.01,2013-03-09 05:13:00,
2013-03-08 21:18:00,42.5,39.2,30.25,NNW,338,3.0,3.0,88,0.00,,---,0.01,VWS V14.01,2013-03-09 05:18:00,
2013-03-08 21:23:00,42.5,39.2,30.26,NNW,338,3.0,3.0,88,0.00,,---,0.01,VWS V14.01,2013-03-09 05:23:00,
2013-03-08 21:28:00,42.5,39.2,30.26,NNW,338,2.0,2.0,88,0.00,,---,0.01,VWS V14.01,2013-03-09 05:28:00,
2013-03-08 21:33:00,42.5,39.2,30.26,NNW,338,2.0,3.0,88,0.00,,---,0.01,VWS V14.01,2013-03-09 05:33:00,
2013-03-08 21:38:00,41.9,38.9,30.26,NNW,338,2.0,2.0,89,0.00,,---,0.01,VWS V14.01,2013-03-09 05:38:00,
2013-03-08 21:43:00,41.9,39.2,30.26,NNW,338,0.0,0.0,90,0.00,,---,0.01,VWS V14.01,2013-03-09 05:43:00,
2013-03-08 21:48:00,41.8,39.1,30.26,NNW,338,0.0,2.0,90,0.00,,---,0.01,VWS V14.01,2013-03-09 05:48:00,
2013-03-08 21:53:00,41.8,39.1,30.26,NNW,338,0.0,0.0,90,0.00,,---,0.01,VWS V14.01,2013-03-09 05:53:00,
2013-03-08 21:58:00,41.7,38.7,30.26,NNW,338,0.0,0.0,89,0.00,,---,0.01,VWS V14.01,2013-03-09 05:58:00,
2013-03-08 22:03:00,41.5,38.5,30.26,NNW,338,0.0,0.0,89,0.00,,---,0.01,VWS V14.01,2013-03-09 06:03:00,
2013-03-08 22:08:00,41.3,38.6,30.26,NNW,337,0.0,0.0,90,0.00,,---,0.01,VWS V14.01,2013-03-09 06:08:00,
2013-03-08 22:13:00,41.3,38.9,30.26,NNW,337,0.0,0.0,91,0.00,,---,0.01,VWS V14.01,2013-03-09 06:13:00,
2013-03-08 22:18:00,41.6,39.2,30.26,NNW,338,0.0,0.0,91,0.00,,---,0.01,VWS V14.01,2013-03-09 06:18:00,
2013-03-08 22:23:00,41.8,39.1,30.26,NNW,337,0.0,0.0,90,0.00,,---,0.01,VWS V14.01,2013-03-09 06:23:00,
2013-03-08 22:28:00,41.8,38.8,30.26,NNW,338,0.0,0.0,89,0.00,,---,0.01,VWS V14.01,2013-03-09 06:28:00,
2013-03-08 22:33:00,41.7,39.0,30.26,NNW,338,0.0,1.0,90,0.00,,---,0.01,VWS V14.01,2013-03-09 06:33:00,
2013-03-08 22:38:00,41.6,38.9,30.26,NNW,338,0.0,0.0,90,0.00,,---,0.01,VWS V14.01,2013-03-09 06:38:00,
2013-03-08 22:43:00,41.3,38.3,30.27,NNW,338,0.0,0.0,89,0.00,,---,0.01,VWS V14.01,2013-03-09 06:43:00,
2013-03-08 22:48:00,41.0,38.0,30.27,NNW,338,0.0,0.0,89,0.00,,---,0.01,VWS V14.01,2013-03-09 06:48:00,
2013-03-08 22:54:00,40.8,38.4,30.27,NNW,338,0.0,0.0,91,0.00,,---,0.01,VWS V14.01,2013-03-09 06:54:00,
2013-03-08 22:59:00,40.7,38.3,30.27,NNW,338,2.0,2.0,91,0.00,,---,0.01,VWS V14.01,2013-03-09 06:59:00,
2013-03-08 23:04:00,40.5,38.1,30.27,NNW,338,0.0,0.0,91,0.00,,---,0.01,VWS V14.01,2013-03-09 07:04:00,
2013-03-08 23:09:00,40.4,38.3,30.27,NNW,337,2.0,2.0,92,0.00,,---,0.01,VWS V14.01,2013-03-09 07:09:00,
2013-03-08 23:14:00,40.2,38.1,30.27,NNW,337,0.0,0.0,92,0.00,,---,0.01,VWS V14.01,2013-03-09 07:14:00,
2013-03-08 23:19:00,40.3,38.4,30.27,NNW,337,1.0,1.0,93,0.00,,---,0.01,VWS V14.01,2013-03-09 07:19:00,
2013-03-08 23:24:00,40.2,38.1,30.28,NNW,337,0.0,0.0,92,0.00,,---,0.01,VWS V14.01,2013-03-09 07:24:00,
2013-03-08 23:29:00,40.1,38.0,30.27,NNW,337,0.0,0.0,92,0.00,,---,0.01,VWS V14.01,2013-03-09 07:29:00,
2013-03-08 23:34:00,40.0,37.9,30.28,NNW,337,0.0,0.0,92,0.00,,---,0.01,VWS V14.01,2013-03-09 07:34:00,
2013-03-08 23:39:00,39.7,37.6,30.28,NNW,337,0.0,0.0,92,0.00,,---,0.01,VWS V14.01,2013-03-09 07:39:00,
2013-03-08 23:44:00,39.4,37.3,30.28,NNW,337,0.0,1.0,92,0.00,,---,0.01,VWS V14.01,2013-03-09 07:44:00,
2013-03-08 23:49:00,38.8,36.4,30.28,NNW,337,0.0,0.0,91,0.00,,---,0.01,VWS V14.01,2013-03-09 07:49:00,
2013-03-08 23:54:00,38.6,36.5,30.28,NNW,337,0.0,1.0,92,0.00,,---,0.01,VWS V14.01,2013-03-09 07:54:00,